BJL weather

Banjul International Airport
Banjul, Western, Gambia

Public forecast

Using degrees Celsius for public forecast. Weather courtesy of forecast.io.

METAR (pilot weather report)

Retrieved 2019/03/25 05:00 UTC (9 minutes ago):

GBYD 250500Z 36006KT CAVOK 19/17 Q1011

TAF (pilot weather forecast)

Retrieved 2019/03/25 00:09 UTC (5 hours ago):

TAF GBYD 242330Z 2500/2606 32006KT CAVOK